createdAt,value
2023-01-13T00:01:29.167Z,10.86
2023-01-13T00:03:56.598Z,10.76
2023-01-13T00:06:29.297Z,10.79
2023-01-13T00:08:57.798Z,10.81
2023-01-13T00:11:26.177Z,10.85
2023-01-13T00:13:53.547Z,10.78
2023-01-13T00:16:21.191Z,10.83
2023-01-13T00:18:48.996Z,10.80
2023-01-13T00:21:18.241Z,10.85
2023-01-13T00:23:46.295Z,10.92
2023-01-13T00:26:16.051Z,10.81
2023-01-13T00:28:43.121Z,10.89
2023-01-13T00:31:19.022Z,10.77
2023-01-13T00:33:48.999Z,10.51
2023-01-13T00:36:18.221Z,10.73
2023-01-13T00:38:45.752Z,10.80
2023-01-13T00:41:15.000Z,10.80
2023-01-13T00:43:42.793Z,10.62
2023-01-13T00:46:11.801Z,10.45
2023-01-13T00:48:40.129Z,10.43
2023-01-13T00:51:10.888Z,10.35
2023-01-13T00:53:41.646Z,10.51
2023-01-13T00:56:34.088Z,10.60
2023-01-13T00:59:05.532Z,10.56
2023-01-13T01:01:32.544Z,10.65
2023-01-13T01:04:00.002Z,10.62
2023-01-13T01:06:27.595Z,10.96
2023-01-13T01:08:55.985Z,10.92
2023-01-13T01:11:26.936Z,10.73
2023-01-13T01:13:56.785Z,10.51
2023-01-13T01:16:25.479Z,10.53
2023-01-13T01:18:55.247Z,10.60
2023-01-13T01:21:24.464Z,10.68
2023-01-13T01:23:52.182Z,10.56
2023-01-13T01:26:22.922Z,10.57
2023-01-13T01:28:50.118Z,10.55
2023-01-13T01:31:22.446Z,10.88
2023-01-13T01:33:50.636Z,10.82
2023-01-13T01:36:20.559Z,10.85
2023-01-13T01:38:48.942Z,10.77
2023-01-13T01:41:18.953Z,10.75
2023-01-13T01:44:00.023Z,10.58
2023-01-13T01:46:34.079Z,10.72
2023-01-13T01:49:24.262Z,10.86
2023-01-13T01:51:59.551Z,10.72
2023-01-13T01:54:32.242Z,9.49
2023-01-13T01:56:59.503Z,9.13
2023-01-13T01:59:28.283Z,9.05
2023-01-13T02:01:55.763Z,8.90
2023-01-13T02:04:32.032Z,8.80
2023-01-13T02:06:59.053Z,8.63
2023-01-13T02:09:27.116Z,8.72
2023-01-13T02:12:12.685Z,8.67
2023-01-13T02:14:41.772Z,8.70
2023-01-13T02:17:21.026Z,8.62
2023-01-13T02:24:13.155Z,8.66
2023-01-13T02:27:11.860Z,8.47
2023-01-13T02:30:37.316Z,8.69
2023-01-13T02:33:25.187Z,8.53
2023-01-13T02:36:08.281Z,8.49
2023-01-13T02:38:39.784Z,8.58
2023-01-13T02:41:37.272Z,8.64
2023-01-13T02:44:08.771Z,8.54
2023-01-13T02:46:47.760Z,8.46
2023-01-13T02:49:28.485Z,8.47
2023-01-13T02:52:00.305Z,8.52
2023-01-13T02:54:29.627Z,8.61
2023-01-13T02:56:59.374Z,8.67
2023-01-13T02:59:27.930Z,8.62
2023-01-13T03:01:57.837Z,8.49
2023-01-13T03:04:43.517Z,8.56
2023-01-13T03:07:18.928Z,8.45
2023-01-13T03:09:58.938Z,8.38
2023-01-13T03:12:41.495Z,8.16
2023-01-13T03:15:20.116Z,8.18
2023-01-13T03:18:03.643Z,8.19
2023-01-13T03:20:37.429Z,8.26
2023-01-13T03:23:15.901Z,8.52
2023-01-13T03:26:12.973Z,8.47
2023-01-13T03:28:46.217Z,8.32
2023-01-13T03:31:20.087Z,8.29
2023-01-13T03:34:04.994Z,8.04
2023-01-13T03:36:34.239Z,8.00
2023-01-13T03:39:09.816Z,8.12
2023-01-13T03:41:45.878Z,8.14
2023-01-13T03:44:40.218Z,8.21
2023-01-13T03:47:26.444Z,8.18
2023-01-13T03:49:59.558Z,8.18
2023-01-13T03:52:38.682Z,8.07
2023-01-13T03:55:10.310Z,8.07
2023-01-13T03:57:42.962Z,8.36
2023-01-13T04:00:12.415Z,8.27
2023-01-13T04:02:51.532Z,8.34
2023-01-13T04:05:18.642Z,8.15
2023-01-13T04:08:31.461Z,7.93
2023-01-13T04:11:06.430Z,7.78
2023-01-13T04:13:38.009Z,7.83
2023-01-13T04:16:10.521Z,7.93
2023-01-13T04:18:39.479Z,7.94
2023-01-13T04:21:07.786Z,8.07
2023-01-13T04:23:34.343Z,7.93
2023-01-13T04:26:00.995Z,7.99
2023-01-13T04:28:27.799Z,8.21
2023-01-13T04:30:54.385Z,8.19
2023-01-13T04:33:21.239Z,7.98
2023-01-13T04:35:48.299Z,7.90
2023-01-13T04:38:17.465Z,7.76
2023-01-13T04:40:44.340Z,8.04
2023-01-13T04:43:11.151Z,7.88
2023-01-13T04:45:38.353Z,7.87
2023-01-13T04:48:05.495Z,7.82
2023-01-13T04:50:32.190Z,8.05
2023-01-13T04:53:01.062Z,8.01
2023-01-13T04:55:28.009Z,8.14
2023-01-13T04:57:54.474Z,7.96
2023-01-13T05:00:22.561Z,7.86
2023-01-13T05:02:50.447Z,7.95
2023-01-13T05:05:17.759Z,7.84
2023-01-13T05:07:45.381Z,7.72
2023-01-13T05:10:12.244Z,7.78
2023-01-13T05:12:58.131Z,7.66
2023-01-13T05:15:43.513Z,7.33
2023-01-13T05:18:10.572Z,7.20
2023-01-13T05:20:37.228Z,7.07
2023-01-13T05:23:22.475Z,6.91
2023-01-13T05:25:49.176Z,6.86
2023-01-13T05:28:16.147Z,7.19
2023-01-13T05:30:46.083Z,6.89
2023-01-13T05:33:14.991Z,6.72
2023-01-13T05:35:42.958Z,7.10
2023-01-13T05:38:10.632Z,6.98
2023-01-13T05:40:59.971Z,6.78
2023-01-13T05:43:27.281Z,6.88
2023-01-13T05:46:04.666Z,6.84
2023-01-13T05:48:39.678Z,6.53
2023-01-13T05:51:08.482Z,6.39
2023-01-13T05:53:35.504Z,6.26
2023-01-13T05:56:06.285Z,6.41
2023-01-13T05:58:33.993Z,6.36
2023-01-13T06:01:05.722Z,6.10
2023-01-13T06:03:32.993Z,6.31
2023-01-13T06:06:01.542Z,6.77
2023-01-13T06:08:28.939Z,6.42
2023-01-13T06:10:55.829Z,6.22
2023-01-13T06:13:23.091Z,6.19
2023-01-13T06:15:49.943Z,6.25
2023-01-13T06:18:16.915Z,6.28
2023-01-13T06:20:44.144Z,6.19
2023-01-13T06:23:11.709Z,6.34
2023-01-13T06:25:38.674Z,6.49
2023-01-13T06:28:05.501Z,6.63
2023-01-13T06:30:46.644Z,6.69
2023-01-13T06:33:16.514Z,6.81
2023-01-13T06:35:46.975Z,6.77
2023-01-13T06:38:17.498Z,6.80
2023-01-13T06:40:44.615Z,6.98
2023-01-13T06:43:16.527Z,6.80
2023-01-13T06:45:53.626Z,6.79
2023-01-13T06:48:28.918Z,6.74
2023-01-13T06:50:56.635Z,6.74
2023-01-13T06:53:24.711Z,6.63
2023-01-13T06:55:53.079Z,6.55
2023-01-13T06:58:21.625Z,6.47
2023-01-13T07:00:51.251Z,6.70
2023-01-13T07:03:19.659Z,6.53
2023-01-13T07:05:53.487Z,6.34
2023-01-13T07:08:22.473Z,6.40
2023-01-13T07:10:51.125Z,6.35
2023-01-13T07:13:37.727Z,6.41
2023-01-13T07:16:08.122Z,6.59
2023-01-13T07:18:36.991Z,6.64
2023-01-13T07:21:07.538Z,6.73
2023-01-13T07:23:37.916Z,6.70
2023-01-13T07:26:08.067Z,6.69
2023-01-13T07:28:36.957Z,6.76
2023-01-13T07:31:06.764Z,6.86
2023-01-13T07:33:34.721Z,6.76
2023-01-13T07:36:04.580Z,6.72
2023-01-13T07:38:33.795Z,6.73
2023-01-13T07:41:23.916Z,6.69
2023-01-13T07:43:52.030Z,6.65
2023-01-13T07:46:19.207Z,6.70
2023-01-13T07:48:48.862Z,6.73
2023-01-13T07:51:16.194Z,6.81
2023-01-13T07:53:43.655Z,6.84
2023-01-13T07:56:12.453Z,6.78
2023-01-13T07:58:40.487Z,6.76
2023-01-13T08:01:13.702Z,6.82
2023-01-13T08:03:41.377Z,6.83
2023-01-13T08:06:12.315Z,7.10
2023-01-13T08:08:39.708Z,7.21
2023-01-13T08:11:08.386Z,7.19
2023-01-13T08:13:36.565Z,7.16
2023-01-13T08:16:11.670Z,7.27
2023-01-13T08:18:40.219Z,7.33
2023-01-13T08:21:12.796Z,7.27
2023-01-13T08:23:42.219Z,7.17
2023-01-13T08:26:14.253Z,6.96
2023-01-13T08:28:42.145Z,6.84
2023-01-13T08:31:13.305Z,6.74
2023-01-13T08:33:41.795Z,6.72
2023-01-13T08:36:12.160Z,6.63
2023-01-13T08:38:40.432Z,6.57
2023-01-13T08:41:10.999Z,6.61
2023-01-13T08:43:38.868Z,6.70
2023-01-13T08:46:07.299Z,6.57
2023-01-13T08:48:35.265Z,6.51
2023-01-13T08:51:05.430Z,6.81
2023-01-13T08:53:33.019Z,6.96
2023-01-13T08:56:00.837Z,6.74
2023-01-13T08:58:28.827Z,6.86
2023-01-13T09:00:56.020Z,6.76
2023-01-13T09:03:24.208Z,6.85
2023-01-13T09:05:51.132Z,7.19
2023-01-13T09:08:19.693Z,7.31
2023-01-13T09:10:47.571Z,7.15
2023-01-13T09:13:15.368Z,7.73
2023-01-13T09:15:45.909Z,7.77
2023-01-13T09:18:14.485Z,7.61
2023-01-13T09:20:42.224Z,7.56
2023-01-13T09:23:11.159Z,7.84
2023-01-13T09:25:39.531Z,7.66
2023-01-13T09:28:08.227Z,7.95
2023-01-13T09:30:37.125Z,7.90
2023-01-13T09:33:23.019Z,8.11
2023-01-13T09:35:50.662Z,8.07
2023-01-13T09:38:18.211Z,8.13
2023-01-13T09:40:48.653Z,7.96
2023-01-13T09:43:44.602Z,7.94
2023-01-13T09:46:43.051Z,8.07
2023-01-13T09:49:37.083Z,8.14
2023-01-13T09:52:04.752Z,8.39
2023-01-13T09:54:41.080Z,8.07
2023-01-13T09:57:12.438Z,8.24
2023-01-13T09:59:40.751Z,8.43
2023-01-13T10:02:10.794Z,8.25
2023-01-13T10:04:37.889Z,8.08
2023-01-13T10:07:12.865Z,8.25
2023-01-13T10:09:52.533Z,8.36
2023-01-13T10:12:42.967Z,8.23
2023-01-13T10:15:30.735Z,8.47
2023-01-13T10:18:18.081Z,8.54
2023-01-13T10:21:07.953Z,8.54
2023-01-13T10:24:00.090Z,8.67
2023-01-13T10:26:59.910Z,8.75
2023-01-13T10:29:30.130Z,8.83
2023-01-13T10:31:59.579Z,8.71
2023-01-13T10:34:28.468Z,8.84
2023-01-13T10:37:07.879Z,8.84
2023-01-13T10:39:46.393Z,8.86
2023-01-13T10:42:17.037Z,8.96
2023-01-13T10:45:03.599Z,9.26
2023-01-13T10:47:34.953Z,9.30
2023-01-13T10:50:09.735Z,9.35
2023-01-13T10:52:56.596Z,9.83
2023-01-13T10:55:37.501Z,9.82
2023-01-13T10:58:18.477Z,9.95
2023-01-13T11:00:46.385Z,10.20
2023-01-13T11:03:19.546Z,10.34
2023-01-13T11:05:59.515Z,10.40
2023-01-13T11:08:41.474Z,10.62
2023-01-13T11:11:28.040Z,10.61
2023-01-13T11:14:21.321Z,10.34
2023-01-13T11:16:53.980Z,9.94
2023-01-13T11:19:27.598Z,9.94
2023-01-13T11:22:06.847Z,10.13
2023-01-13T11:24:40.708Z,10.31
2023-01-13T11:27:17.437Z,9.99
2023-01-13T11:29:59.288Z,9.80
2023-01-13T11:32:35.229Z,9.80
2023-01-13T11:35:15.901Z,9.75
2023-01-13T11:37:51.137Z,9.67
2023-01-13T11:40:27.629Z,9.38
2023-01-13T11:43:04.291Z,9.63
2023-01-13T11:45:43.845Z,10.21
2023-01-13T11:48:17.908Z,10.07
2023-01-13T11:51:07.996Z,9.71
2023-01-13T11:54:05.656Z,10.31
2023-01-13T11:56:57.743Z,10.59
2023-01-13T12:00:03.253Z,10.45
2023-01-13T12:02:48.879Z,10.72
2023-01-13T12:05:32.123Z,10.45
2023-01-13T12:08:18.441Z,10.25
2023-01-13T12:10:49.009Z,10.08
2023-01-13T12:13:36.412Z,10.07
2023-01-13T12:16:13.789Z,9.80
2023-01-13T12:19:11.809Z,10.16
2023-01-13T12:21:58.109Z,10.60
2023-01-13T12:24:33.122Z,10.90
2023-01-13T12:27:10.248Z,10.48
2023-01-13T12:29:39.005Z,10.02
2023-01-13T12:32:13.615Z,9.80
2023-01-13T12:35:08.983Z,9.96
2023-01-13T12:37:48.496Z,9.93
2023-01-13T12:40:57.848Z,9.99
2023-01-13T12:43:44.517Z,10.12
2023-01-13T12:46:23.398Z,9.94
2023-01-13T12:48:54.595Z,10.03
2023-01-13T12:51:33.306Z,10.14
2023-01-13T12:54:37.485Z,9.98
2023-01-13T12:57:33.471Z,9.96
2023-01-13T13:00:03.341Z,9.95
2023-01-13T13:02:32.934Z,10.09
2023-01-13T13:05:23.886Z,10.19
2023-01-13T13:08:11.236Z,10.04
2023-01-13T13:10:45.071Z,10.21
2023-01-13T13:13:48.543Z,10.12
2023-01-13T13:16:25.750Z,10.05
2023-01-13T13:19:22.842Z,10.12
2023-01-13T13:22:12.385Z,9.96
2023-01-13T13:25:04.265Z,9.76
2023-01-13T13:27:31.724Z,9.56
2023-01-13T13:30:09.557Z,9.60
2023-01-13T13:32:59.591Z,9.50
2023-01-13T13:35:51.947Z,9.45
2023-01-13T13:39:07.591Z,9.62
2023-01-13T13:41:55.471Z,9.52
2023-01-13T13:44:50.317Z,9.59
2023-01-13T13:47:19.302Z,9.54
2023-01-13T13:49:52.207Z,9.56
2023-01-13T13:52:42.499Z,9.59
2023-01-13T13:55:25.171Z,9.64
2023-01-13T13:57:55.044Z,9.56
2023-01-13T14:00:47.042Z,9.54
2023-01-13T14:03:29.244Z,9.65
2023-01-13T14:06:00.854Z,9.69
2023-01-13T14:08:35.579Z,9.71
2023-01-13T14:11:25.747Z,9.78
2023-01-13T14:14:07.145Z,9.77
2023-01-13T14:16:38.229Z,9.83
2023-01-13T14:19:06.892Z,9.78
2023-01-13T14:21:35.638Z,9.70
2023-01-13T14:24:16.089Z,9.75
2023-01-13T14:26:51.258Z,9.66
2023-01-13T14:29:23.721Z,9.65
2023-01-13T14:31:54.529Z,9.61
2023-01-13T14:34:31.456Z,9.62
2023-01-13T14:37:02.975Z,9.60
2023-01-13T14:39:49.191Z,9.59
2023-01-13T14:42:17.959Z,9.60
2023-01-13T14:44:49.740Z,9.51
2023-01-13T14:47:20.099Z,9.36
2023-01-13T14:50:27.988Z,9.33
2023-01-13T14:52:57.337Z,9.28
2023-01-13T14:55:32.143Z,9.16
2023-01-13T14:58:21.816Z,8.97
2023-01-13T15:00:51.509Z,8.91
2023-01-13T15:03:21.275Z,8.84
2023-01-13T15:05:51.736Z,8.76
2023-01-13T15:08:24.633Z,8.52
2023-01-13T15:11:00.755Z,8.35
2023-01-13T15:13:37.990Z,8.28
2023-01-13T15:16:19.071Z,8.29
2023-01-13T15:18:47.939Z,8.42
2023-01-13T15:21:16.186Z,8.37
2023-01-13T15:23:44.528Z,8.38
2023-01-13T15:26:22.724Z,8.36
2023-01-13T15:28:53.194Z,8.35
2023-01-13T15:31:21.465Z,8.37
2023-01-13T15:33:50.017Z,8.33
2023-01-13T15:36:26.373Z,8.38
2023-01-13T15:38:54.039Z,8.29
2023-01-13T15:41:42.215Z,8.29
2023-01-13T15:44:30.771Z,8.35
2023-01-13T15:47:01.310Z,8.16
2023-01-13T15:49:36.483Z,8.12
2023-01-13T15:52:30.187Z,8.11
2023-01-13T15:54:57.465Z,8.10
2023-01-13T15:57:29.347Z,8.03
2023-01-13T16:00:00.083Z,8.05
2023-01-13T16:02:29.608Z,7.99
2023-01-13T16:04:58.518Z,7.94
2023-01-13T16:07:25.759Z,8.04
2023-01-13T16:09:53.852Z,8.21
2023-01-13T16:12:21.590Z,8.23
2023-01-13T16:14:49.253Z,8.39
2023-01-13T16:17:19.723Z,8.33
2023-01-13T16:19:47.019Z,8.22
2023-01-13T16:22:15.827Z,8.28
2023-01-13T16:24:44.515Z,8.17
2023-01-13T16:27:17.477Z,8.43
2023-01-13T16:29:48.492Z,8.42
2023-01-13T16:32:17.514Z,8.51
2023-01-13T16:34:45.008Z,8.44
2023-01-13T16:37:20.483Z,8.51
2023-01-13T16:39:48.623Z,8.40
2023-01-13T16:42:16.387Z,8.40
2023-01-13T16:44:45.206Z,8.36
2023-01-13T16:47:17.938Z,8.48
2023-01-13T16:49:45.809Z,8.41
2023-01-13T16:52:13.468Z,8.36
2023-01-13T16:54:41.383Z,8.38
2023-01-13T16:57:13.228Z,8.37
2023-01-13T16:59:40.993Z,8.28
2023-01-13T17:02:16.250Z,8.26
2023-01-13T17:04:45.312Z,8.29
2023-01-13T17:07:16.768Z,8.22
2023-01-13T17:09:44.635Z,8.23
2023-01-13T17:12:12.593Z,8.24
2023-01-13T17:14:43.214Z,8.25
2023-01-13T17:17:26.519Z,8.29
2023-01-13T17:19:55.551Z,8.31
2023-01-13T17:22:22.885Z,8.23
2023-01-13T17:24:50.735Z,8.20
2023-01-13T17:27:21.031Z,8.15
2023-01-13T17:29:49.986Z,8.13
2023-01-13T17:32:19.492Z,8.17
2023-01-13T17:34:47.337Z,8.19
2023-01-13T17:37:15.648Z,8.15
2023-01-13T17:39:48.163Z,8.28
2023-01-13T17:42:16.210Z,8.10
2023-01-13T17:44:44.427Z,8.26
2023-01-13T17:47:12.327Z,8.07
2023-01-13T17:49:40.227Z,7.96
2023-01-13T17:52:07.522Z,7.96
2023-01-13T17:54:36.510Z,7.99
2023-01-13T17:57:03.699Z,8.00
2023-01-13T17:59:32.316Z,8.14
2023-01-13T18:02:00.332Z,8.16
2023-01-13T18:04:28.599Z,7.93
2023-01-13T18:06:56.934Z,7.75
2023-01-13T18:09:24.565Z,7.91
2023-01-13T18:11:52.254Z,8.02
2023-01-13T18:14:22.562Z,7.84
2023-01-13T18:16:50.484Z,7.84
2023-01-13T18:19:37.369Z,7.68
2023-01-13T18:22:24.221Z,7.86
2023-01-13T18:25:11.231Z,8.02
2023-01-13T18:27:41.557Z,7.81
2023-01-13T18:30:11.874Z,7.73
2023-01-13T18:32:43.806Z,7.94
2023-01-13T18:35:12.231Z,7.84
2023-01-13T18:37:42.266Z,7.92
2023-01-13T18:40:11.731Z,8.13
2023-01-13T18:42:54.384Z,8.16
2023-01-13T18:45:25.691Z,8.14
2023-01-13T18:47:55.600Z,7.87
2023-01-13T18:50:23.743Z,7.91
2023-01-13T18:52:51.951Z,7.82
2023-01-13T18:55:21.662Z,7.67
2023-01-13T18:57:50.411Z,7.58
2023-01-13T19:00:19.927Z,7.39
2023-01-13T19:05:35.592Z,7.45
2023-01-13T19:08:05.339Z,7.46
2023-01-13T19:10:36.107Z,7.27
2023-01-13T19:13:02.973Z,7.19
2023-01-13T19:15:30.387Z,7.17
2023-01-13T19:17:57.664Z,7.26
2023-01-13T19:20:25.396Z,7.23
2023-01-13T19:22:54.380Z,7.22
2023-01-13T19:25:21.744Z,7.19
2023-01-13T19:27:48.450Z,7.13
2023-01-13T19:30:17.327Z,7.10
2023-01-13T19:32:45.028Z,7.17
2023-01-13T19:35:14.026Z,7.35
2023-01-13T19:37:43.010Z,7.19
2023-01-13T19:40:10.884Z,7.00
2023-01-13T19:42:56.720Z,7.04
2023-01-13T19:45:26.554Z,7.02
2023-01-13T19:47:54.469Z,6.99
2023-01-13T19:50:21.428Z,7.12
2023-01-13T19:52:48.465Z,7.14
2023-01-13T19:55:15.518Z,7.23
2023-01-13T19:57:43.345Z,7.20
2023-01-13T20:00:12.248Z,7.38
2023-01-13T20:02:44.836Z,7.34
2023-01-13T20:05:17.705Z,7.34
2023-01-13T20:07:45.319Z,7.51
2023-01-13T20:10:13.311Z,7.56
2023-01-13T20:12:42.544Z,7.58
2023-01-13T20:15:09.882Z,7.48
2023-01-13T20:17:37.017Z,7.29
2023-01-13T20:20:04.768Z,7.48
2023-01-13T20:22:31.602Z,7.53
2023-01-13T20:24:58.451Z,7.56
2023-01-13T20:27:25.291Z,7.45
2023-01-13T20:29:52.150Z,7.45
2023-01-13T20:32:18.962Z,7.52
2023-01-13T20:34:45.820Z,7.42
2023-01-13T20:37:12.683Z,7.55
2023-01-13T20:39:42.598Z,7.38
2023-01-13T20:42:28.518Z,7.35
2023-01-13T20:44:59.007Z,7.41
2023-01-13T20:47:26.697Z,7.39
2023-01-13T20:49:53.523Z,7.17
2023-01-13T20:52:20.513Z,7.32
2023-01-13T20:54:47.406Z,7.37
2023-01-13T20:57:14.994Z,7.54
2023-01-13T20:59:42.040Z,7.54
2023-01-13T21:02:13.335Z,7.61
2023-01-13T21:04:40.702Z,7.72
2023-01-13T21:07:09.112Z,7.59
2023-01-13T21:09:36.472Z,7.60
2023-01-13T21:12:33.243Z,7.53
2023-01-13T21:15:19.611Z,7.51
2023-01-13T21:18:06.850Z,7.56
2023-01-13T21:20:36.020Z,7.69
2023-01-13T21:23:03.636Z,7.70
2023-01-13T21:25:31.125Z,7.68
2023-01-13T21:28:06.651Z,7.81
2023-01-13T21:30:35.122Z,7.74
2023-01-13T21:33:03.791Z,7.75
2023-01-13T21:35:30.841Z,7.86
2023-01-13T21:37:57.556Z,7.87
2023-01-13T21:40:23.978Z,7.89
2023-01-13T21:43:10.900Z,7.79
2023-01-13T21:45:57.161Z,7.87
2023-01-13T21:48:24.637Z,7.56
2023-01-13T21:50:52.620Z,7.50
2023-01-13T21:53:19.273Z,7.56
2023-01-13T21:55:50.611Z,7.58
2023-01-13T21:58:17.725Z,7.51
2023-01-13T22:00:44.696Z,7.68
2023-01-13T22:03:12.872Z,7.75
2023-01-13T22:05:40.076Z,7.66
2023-01-13T22:08:07.503Z,7.68
2023-01-13T22:10:34.335Z,7.77
2023-01-13T22:13:20.165Z,7.77
2023-01-13T22:15:48.467Z,7.74
2023-01-13T22:18:15.233Z,7.69
2023-01-13T22:20:42.001Z,7.62
2023-01-13T22:23:08.746Z,7.65
2023-01-13T22:25:35.711Z,7.46
2023-01-13T22:28:05.890Z,7.34
2023-01-13T22:30:33.144Z,7.34
2023-01-13T22:33:00.555Z,7.46
2023-01-13T22:35:27.524Z,7.31
2023-01-13T22:37:54.085Z,7.62
2023-01-13T22:40:21.212Z,7.52
2023-01-13T22:42:48.415Z,7.38
2023-01-13T22:45:14.968Z,7.34
2023-01-13T22:47:41.636Z,7.40
2023-01-13T22:50:09.274Z,7.16
2023-01-13T22:52:36.265Z,7.02
2023-01-13T22:55:03.620Z,7.05
2023-01-13T22:57:36.332Z,7.02
2023-01-13T23:00:10.612Z,6.96
2023-01-13T23:02:38.591Z,7.04
2023-01-13T23:05:05.770Z,6.95
2023-01-13T23:07:32.532Z,7.11
2023-01-13T23:10:00.678Z,6.75
2023-01-13T23:12:27.619Z,6.68
2023-01-13T23:14:55.092Z,6.49
2023-01-13T23:17:22.028Z,6.31
2023-01-13T23:19:49.131Z,6.16
2023-01-13T23:22:15.611Z,6.03
2023-01-13T23:24:42.219Z,5.96
2023-01-13T23:27:09.208Z,5.85
2023-01-13T23:29:36.298Z,5.92
2023-01-13T23:32:03.455Z,5.85
2023-01-13T23:34:30.611Z,5.57
2023-01-13T23:36:57.188Z,6.04
2023-01-13T23:39:24.583Z,6.05
2023-01-13T23:41:51.924Z,6.05
2023-01-13T23:44:18.514Z,5.97
2023-01-13T23:46:45.493Z,5.76
2023-01-13T23:49:12.380Z,5.88
2023-01-13T23:51:39.097Z,5.81
2023-01-13T23:54:06.459Z,5.91
2023-01-13T23:56:34.678Z,5.85
2023-01-13T23:59:01.303Z,5.68
